createdAt,value
2018-03-18T00:00:51.827Z,100370.98
2018-03-18T00:01:56.964Z,100401.02
2018-03-18T00:03:00.457Z,100396.80
2018-03-18T00:04:03.816Z,100385.00
2018-03-18T00:05:07.351Z,100383.69
2018-03-18T00:06:10.800Z,100387.58
2018-03-18T00:07:14.173Z,100384.09
2018-03-18T00:08:17.666Z,100394.07
2018-03-18T00:09:21.016Z,100383.64
2018-03-18T00:10:24.658Z,100369.27
2018-03-18T00:11:28.042Z,100391.38
2018-03-18T00:12:31.421Z,100407.03
2018-03-18T00:13:34.797Z,100387.09
2018-03-18T00:14:38.203Z,100412.36
2018-03-18T00:15:41.548Z,100402.52
2018-03-18T00:16:44.920Z,100384.82
2018-03-18T00:17:48.217Z,100388.84
2018-03-18T00:18:51.548Z,100398.54
2018-03-18T00:19:54.872Z,100402.98
2018-03-18T00:20:58.240Z,100394.39
2018-03-18T00:22:01.530Z,100387.10
2018-03-18T00:23:04.893Z,100393.53
2018-03-18T00:24:08.285Z,100380.89
2018-03-18T00:25:11.732Z,100385.58
2018-03-18T00:26:15.054Z,100388.11
2018-03-18T00:27:18.462Z,100398.42
2018-03-18T00:28:22.638Z,100392.25
2018-03-18T00:29:26.117Z,100385.38
2018-03-18T00:30:29.523Z,100392.67
2018-03-18T00:31:32.939Z,100393.09
2018-03-18T00:32:36.276Z,100402.20
2018-03-18T00:33:39.644Z,100398.29
2018-03-18T00:34:42.987Z,100403.50
2018-03-18T00:35:46.293Z,100398.72
2018-03-18T00:36:49.680Z,100400.47
2018-03-18T00:37:53.083Z,100401.72
2018-03-18T00:38:56.542Z,100407.73
2018-03-18T00:39:59.878Z,100396.82
2018-03-18T00:41:03.224Z,100394.98
2018-03-18T00:42:06.589Z,100390.56
2018-03-18T00:43:10.009Z,100394.84
2018-03-18T00:44:13.449Z,100389.14
2018-03-18T00:45:16.815Z,100398.13
2018-03-18T00:46:20.251Z,100392.86
2018-03-18T00:47:23.605Z,100392.03
2018-03-18T00:48:27.092Z,100393.05
2018-03-18T00:49:30.441Z,100406.58
2018-03-18T00:50:33.866Z,100397.56
2018-03-18T00:53:14.347Z,100400.36
2018-03-18T00:54:17.722Z,100382.09
2018-03-18T00:55:21.130Z,100385.51
2018-03-18T00:56:24.479Z,100391.94
2018-03-18T00:57:27.869Z,100397.56
2018-03-18T00:58:31.260Z,100396.25
2018-03-18T00:59:34.674Z,100385.77
2018-03-18T01:00:38.128Z,100384.52
2018-03-18T01:01:41.473Z,100391.02
2018-03-18T01:02:44.833Z,100385.34
2018-03-18T01:03:48.178Z,100387.17
2018-03-18T01:04:51.496Z,100383.83
2018-03-18T01:05:54.963Z,100399.62
2018-03-18T01:06:58.275Z,100389.70
2018-03-18T01:08:01.662Z,100384.96
2018-03-18T01:09:04.974Z,100385.92
2018-03-18T01:10:08.302Z,100392.44
2018-03-18T01:11:13.537Z,100400.72
2018-03-18T01:12:16.936Z,100385.27
2018-03-18T01:13:20.356Z,100396.59
2018-03-18T01:14:23.724Z,100390.93
2018-03-18T01:15:27.047Z,100399.16
2018-03-18T01:16:30.373Z,100404.28
2018-03-18T01:17:34.817Z,100403.04
2018-03-18T01:18:38.272Z,100392.63
2018-03-18T01:19:41.652Z,100402.53
2018-03-18T01:20:45.064Z,100405.22
2018-03-18T01:21:48.775Z,100398.28
2018-03-18T01:22:52.191Z,100405.25
2018-03-18T01:23:56.096Z,100407.09
2018-03-18T01:24:59.516Z,100396.36
2018-03-18T01:26:02.831Z,100392.08
2018-03-18T01:27:06.230Z,100397.32
2018-03-18T01:28:09.660Z,100397.81
2018-03-18T01:29:13.070Z,100396.36
2018-03-18T01:30:16.439Z,100399.31
2018-03-18T01:31:20.581Z,100407.86
2018-03-18T01:32:24.050Z,100402.53
2018-03-18T01:33:27.527Z,100404.63
2018-03-18T01:34:30.842Z,100399.84
2018-03-18T01:35:34.248Z,100411.58
2018-03-18T01:36:38.256Z,100399.44
2018-03-18T01:37:41.631Z,100406.02
2018-03-18T01:38:44.967Z,100405.14
2018-03-18T01:39:48.310Z,100406.44
2018-03-18T01:40:51.688Z,100393.77
2018-03-18T01:41:55.082Z,100391.51
2018-03-18T01:42:58.376Z,100395.87
2018-03-18T01:44:01.778Z,100392.38
2018-03-18T01:45:05.202Z,100391.53
2018-03-18T01:46:08.631Z,100392.05
2018-03-18T01:47:11.974Z,100401.68
2018-03-18T01:48:15.426Z,100395.67
2018-03-18T01:49:19.335Z,100410.91
2018-03-18T01:50:22.674Z,100400.17
2018-03-18T01:51:26.063Z,100398.48
2018-03-18T01:52:29.416Z,100389.33
2018-03-18T01:53:32.748Z,100396.31
2018-03-18T01:54:36.196Z,100388.91
2018-03-18T01:55:39.508Z,100396.73
2018-03-18T01:56:42.914Z,100397.47
2018-03-18T01:57:46.244Z,100399.13
2018-03-18T01:58:49.580Z,100393.80
2018-03-18T01:59:53.240Z,100395.45
2018-03-18T02:00:56.585Z,100410.19
2018-03-18T02:01:59.996Z,100395.84
2018-03-18T02:03:03.312Z,100396.72
2018-03-18T02:04:06.734Z,100386.83
2018-03-18T02:05:10.163Z,100390.77
2018-03-18T02:06:13.558Z,100374.19
2018-03-18T02:07:16.960Z,100380.62
2018-03-18T02:08:20.278Z,100387.99
2018-03-18T02:09:23.632Z,100382.35
2018-03-18T02:10:26.996Z,100389.30
2018-03-18T02:11:31.948Z,100394.94
2018-03-18T02:12:35.235Z,100388.92
2018-03-18T02:13:38.544Z,100383.34
2018-03-18T02:14:41.881Z,100377.67
2018-03-18T02:15:45.325Z,100388.88
2018-03-18T02:16:48.792Z,100375.41
2018-03-18T02:17:52.124Z,100381.02
2018-03-18T02:18:55.435Z,100387.45
2018-03-18T02:19:58.880Z,100378.75
2018-03-18T02:21:02.285Z,100381.33
2018-03-18T02:22:05.818Z,100380.00
2018-03-18T02:23:09.195Z,100377.39
2018-03-18T02:24:12.484Z,100381.22
2018-03-18T02:25:15.840Z,100376.86
2018-03-18T02:26:19.168Z,100380.66
2018-03-18T02:27:22.552Z,100382.36
2018-03-18T02:28:25.915Z,100383.16
2018-03-18T02:29:29.273Z,100386.16
2018-03-18T02:30:32.631Z,100370.93
2018-03-18T02:31:35.977Z,100383.16
2018-03-18T02:32:40.176Z,100377.66
2018-03-18T02:33:43.548Z,100380.28
2018-03-18T02:34:46.930Z,100379.86
2018-03-18T02:35:50.337Z,100379.89
2018-03-18T02:36:53.796Z,100397.38
2018-03-18T02:37:57.195Z,100373.95
2018-03-18T02:39:00.604Z,100368.74
2018-03-18T02:40:03.959Z,100396.08
2018-03-18T02:41:07.310Z,100381.28
2018-03-18T02:42:10.701Z,100374.81
2018-03-18T02:43:14.057Z,100375.29
2018-03-18T02:44:17.402Z,100392.33
2018-03-18T02:45:21.056Z,100370.64
2018-03-18T02:46:24.452Z,100371.48
2018-03-18T02:47:27.844Z,100372.26
2018-03-18T02:48:31.197Z,100385.78
2018-03-18T02:49:34.536Z,100377.47
2018-03-18T02:50:37.877Z,100377.47
2018-03-18T02:51:41.219Z,100377.53
2018-03-18T02:52:44.723Z,100384.53
2018-03-18T02:53:48.088Z,100396.70
2018-03-18T02:54:51.566Z,100369.78
2018-03-18T02:55:54.887Z,100373.22
2018-03-18T02:56:58.237Z,100382.23
2018-03-18T02:58:01.578Z,100373.08
2018-03-18T02:59:04.908Z,100381.33
2018-03-18T03:00:08.330Z,100373.19
2018-03-18T03:01:11.632Z,100367.52
2018-03-18T03:02:15.613Z,100380.51
2018-03-18T03:03:19.109Z,100376.99
2018-03-18T03:04:22.405Z,100373.45
2018-03-18T03:05:25.745Z,100373.37
2018-03-18T03:06:29.072Z,100371.21
2018-03-18T03:07:32.445Z,100372.94
2018-03-18T03:08:35.820Z,100369.56
2018-03-18T03:09:39.223Z,100382.23
2018-03-18T03:10:42.627Z,100371.44
2018-03-18T03:11:46.985Z,100376.66
2018-03-18T03:12:50.383Z,100386.74
2018-03-18T03:13:53.720Z,100367.31
2018-03-18T03:14:57.109Z,100377.01
2018-03-18T03:16:00.440Z,100379.73
2018-03-18T03:17:03.753Z,100378.83
2018-03-18T03:18:07.134Z,100385.82
2018-03-18T03:19:10.572Z,100381.06
2018-03-18T03:20:14.537Z,100378.91
2018-03-18T03:21:17.899Z,100374.14
2018-03-18T03:22:21.606Z,100378.91
2018-03-18T03:23:24.917Z,100380.63
2018-03-18T03:24:28.376Z,100381.09
2018-03-18T03:25:31.776Z,100375.45
2018-03-18T03:26:35.091Z,100377.23
2018-03-18T03:27:38.422Z,100401.16
2018-03-18T03:28:41.753Z,100375.98
2018-03-18T03:29:45.157Z,100375.23
2018-03-18T03:30:48.474Z,100370.47
2018-03-18T03:31:51.772Z,100386.58
2018-03-18T03:32:55.208Z,100375.67
2018-03-18T03:33:58.537Z,100381.78
2018-03-18T03:35:01.921Z,100380.03
2018-03-18T03:36:05.235Z,100383.52
2018-03-18T03:37:08.548Z,100382.23
2018-03-18T03:38:12.008Z,100381.36
2018-03-18T03:39:15.495Z,100379.60
2018-03-18T03:40:18.856Z,100376.95
2018-03-18T03:41:22.288Z,100382.10
2018-03-18T03:42:25.823Z,100395.63
2018-03-18T03:43:29.124Z,100391.36
2018-03-18T03:44:32.433Z,100380.08
2018-03-18T03:45:35.854Z,100374.41
2018-03-18T03:46:39.164Z,100382.16
2018-03-18T03:47:42.481Z,100389.45
2018-03-18T03:48:45.843Z,100391.97
2018-03-18T03:49:49.184Z,100388.41
2018-03-18T03:50:52.572Z,100382.66
2018-03-18T03:51:55.894Z,100388.72
2018-03-18T03:52:59.255Z,100394.41
2018-03-18T03:54:02.703Z,100395.43
2018-03-18T03:55:06.192Z,100407.70
2018-03-18T03:56:09.573Z,100378.70
2018-03-18T03:57:12.945Z,100393.41
2018-03-18T03:58:16.326Z,100388.70
2018-03-18T03:59:19.647Z,100398.82
2018-03-18T04:00:23.087Z,100390.57
2018-03-18T04:01:26.415Z,100391.81
2018-03-18T04:02:29.791Z,100380.64
2018-03-18T04:03:33.176Z,100380.78
2018-03-18T04:04:36.490Z,100379.59
2018-03-18T04:05:39.868Z,100389.16
2018-03-18T04:06:43.435Z,100377.41
2018-03-18T04:07:46.781Z,100377.32
2018-03-18T04:08:50.326Z,100379.00
2018-03-18T04:09:53.727Z,100378.01
2018-03-18T04:10:57.044Z,100387.11
2018-03-18T04:12:01.338Z,100374.95
2018-03-18T04:13:04.651Z,100379.73
2018-03-18T04:14:07.992Z,100380.14
2018-03-18T04:15:11.964Z,100383.52
2018-03-18T04:16:15.258Z,100382.75
2018-03-18T04:17:18.656Z,100383.34
2018-03-18T04:18:21.978Z,100378.25
2018-03-18T04:19:25.296Z,100383.97
2018-03-18T04:20:28.811Z,100377.14
2018-03-18T04:21:32.157Z,100377.61
2018-03-18T04:22:35.766Z,100374.19
2018-03-18T04:23:39.293Z,100380.28
2018-03-18T04:24:42.726Z,100382.02
2018-03-18T04:25:46.227Z,100379.87
2018-03-18T04:26:49.634Z,100379.87
2018-03-18T04:27:53.013Z,100373.81
2018-03-18T04:28:56.418Z,100379.56
2018-03-18T04:29:59.720Z,100378.31
2018-03-18T04:31:03.176Z,100375.34
2018-03-18T04:32:06.502Z,100379.77
2018-03-18T04:33:09.926Z,100388.90
2018-03-18T04:34:13.333Z,100380.63
2018-03-18T04:35:16.733Z,100383.66
2018-03-18T04:36:20.089Z,100382.73
2018-03-18T04:37:23.477Z,100384.38
2018-03-18T04:38:26.926Z,100381.63
2018-03-18T04:39:30.263Z,100382.44
2018-03-18T04:40:33.578Z,100389.32
2018-03-18T04:41:37.022Z,100378.39
2018-03-18T04:42:40.368Z,100386.23
2018-03-18T04:43:43.753Z,100378.84
2018-03-18T04:44:47.159Z,100378.05
2018-03-18T04:45:50.539Z,100386.27
2018-03-18T04:46:53.920Z,100381.37
2018-03-18T04:47:57.281Z,100389.14
2018-03-18T04:49:00.631Z,100382.94
2018-03-18T04:50:04.052Z,100379.34
2018-03-18T04:51:07.370Z,100389.69
2018-03-18T04:52:10.981Z,100400.13
2018-03-18T04:53:14.276Z,100383.63
2018-03-18T04:54:17.661Z,100393.63
2018-03-18T04:55:20.960Z,100391.34
2018-03-18T04:56:24.368Z,100396.10
2018-03-18T04:57:27.707Z,100395.66
2018-03-18T04:58:31.010Z,100396.08
2018-03-18T04:59:34.500Z,100388.17
2018-03-18T05:00:37.902Z,100384.20
2018-03-18T05:01:41.211Z,100400.64
2018-03-18T05:02:44.680Z,100390.21
2018-03-18T05:03:48.955Z,100403.81
2018-03-18T05:04:52.357Z,100390.44
2018-03-18T05:05:55.658Z,100396.42
2018-03-18T05:06:59.048Z,100390.78
2018-03-18T05:08:02.464Z,100397.24
2018-03-18T05:09:05.790Z,100403.77
2018-03-18T05:10:09.163Z,100402.46
2018-03-18T05:11:12.548Z,100409.34
2018-03-18T05:12:17.585Z,100407.23
2018-03-18T05:13:20.970Z,100397.81
2018-03-18T05:14:24.340Z,100401.80
2018-03-18T05:15:28.700Z,100397.45
2018-03-18T05:16:32.340Z,100404.41
2018-03-18T05:17:35.721Z,100411.32
2018-03-18T05:18:39.030Z,100400.87
2018-03-18T05:19:42.931Z,100403.92
2018-03-18T05:20:46.244Z,100403.45
2018-03-18T05:21:49.683Z,100405.58
2018-03-18T05:22:53.012Z,100401.66
2018-03-18T05:23:56.401Z,100414.36
2018-03-18T05:24:59.719Z,100406.98
2018-03-18T05:26:03.156Z,100402.22
2018-03-18T05:27:06.619Z,100405.84
2018-03-18T05:28:09.936Z,100409.39
2018-03-18T05:29:13.337Z,100403.80
2018-03-18T05:30:16.713Z,100405.52
2018-03-18T05:31:20.184Z,100411.62
2018-03-18T05:32:23.588Z,100425.96
2018-03-18T05:33:26.912Z,100398.27
2018-03-18T05:34:30.321Z,100404.75
2018-03-18T05:35:33.733Z,100407.36
2018-03-18T05:36:37.197Z,100405.58
2018-03-18T05:37:40.549Z,100415.10
2018-03-18T05:38:43.915Z,100412.36
2018-03-18T05:39:47.231Z,100406.22
2018-03-18T05:40:50.719Z,100416.52
2018-03-18T05:41:54.106Z,100412.92
2018-03-18T05:42:57.401Z,100402.14
2018-03-18T05:44:00.747Z,100422.16
2018-03-18T05:45:04.162Z,100423.11
2018-03-18T05:46:07.747Z,100424.52
2018-03-18T05:47:11.095Z,100427.80
2018-03-18T05:48:14.639Z,100417.92
2018-03-18T05:49:17.948Z,100423.75
2018-03-18T05:50:21.368Z,100431.70
2018-03-18T05:51:24.706Z,100422.18
2018-03-18T05:52:28.064Z,100426.91
2018-03-18T05:53:31.439Z,100431.17
2018-03-18T05:56:53.619Z,100421.59
2018-03-18T05:57:57.686Z,100428.45
2018-03-18T05:59:01.114Z,100420.56
2018-03-18T06:00:04.431Z,100436.63
2018-03-18T06:01:07.845Z,100439.18
2018-03-18T06:02:11.211Z,100433.17
2018-03-18T06:03:14.564Z,100432.72
2018-03-18T06:04:17.910Z,100426.14
2018-03-18T06:05:21.287Z,100437.40
2018-03-18T06:06:26.033Z,100429.10
2018-03-18T06:07:29.331Z,100442.88
2018-03-18T06:08:33.724Z,100431.55
2018-03-18T06:09:37.172Z,100436.37
2018-03-18T06:10:40.521Z,100423.64
2018-03-18T06:11:43.927Z,100431.84
2018-03-18T06:12:48.139Z,100444.39
2018-03-18T06:13:51.492Z,100436.50
2018-03-18T06:14:54.840Z,100447.78
2018-03-18T06:15:58.128Z,100436.87
2018-03-18T06:17:02.138Z,100443.39
2018-03-18T06:18:06.449Z,100437.69
2018-03-18T06:19:09.897Z,100441.61
2018-03-18T06:20:14.321Z,100437.61
2018-03-18T06:21:17.708Z,100430.70
2018-03-18T06:22:21.011Z,100441.81
2018-03-18T06:23:24.437Z,100446.16
2018-03-18T06:24:27.871Z,100433.63
2018-03-18T06:25:31.271Z,100447.09
2018-03-18T06:26:34.565Z,100445.36
2018-03-18T06:27:37.868Z,100448.82
2018-03-18T06:28:41.207Z,100455.26
2018-03-18T06:29:44.695Z,100449.53
2018-03-18T06:30:47.999Z,100449.14
2018-03-18T06:31:51.361Z,100448.26
2018-03-18T06:32:54.713Z,100459.12
2018-03-18T06:33:58.072Z,100459.12
2018-03-18T06:35:01.532Z,100455.57
2018-03-18T06:36:04.869Z,100466.11
2018-03-18T06:37:08.279Z,100465.38
2018-03-18T06:38:11.620Z,100455.07
2018-03-18T06:39:14.928Z,100454.75
2018-03-18T06:40:18.312Z,100464.78
2018-03-18T06:41:21.860Z,100462.77
2018-03-18T06:42:25.197Z,100480.80
2018-03-18T06:43:28.621Z,100467.05
2018-03-18T06:44:31.931Z,100475.39
2018-03-18T06:45:35.276Z,100478.42
2018-03-18T06:46:38.585Z,100481.00
2018-03-18T06:47:41.955Z,100471.91
2018-03-18T06:48:45.280Z,100474.99
2018-03-18T06:49:48.586Z,100469.30
2018-03-18T06:50:51.965Z,100486.72
2018-03-18T06:51:55.285Z,100482.33
2018-03-18T06:52:58.764Z,100470.25
2018-03-18T06:54:02.196Z,100478.10
2018-03-18T06:55:05.509Z,100483.34
2018-03-18T06:56:08.856Z,100475.02
2018-03-18T06:57:12.312Z,100473.16
2018-03-18T06:58:15.703Z,100470.09
2018-03-18T06:59:19.075Z,100479.14
2018-03-18T07:00:22.382Z,100484.31
2018-03-18T07:01:25.708Z,100491.17
2018-03-18T07:02:29.132Z,100480.69
2018-03-18T07:03:32.532Z,100483.78
2018-03-18T07:04:35.822Z,100488.09
2018-03-18T07:05:39.169Z,100482.42
2018-03-18T07:06:42.529Z,100482.75
2018-03-18T07:07:46.058Z,100477.42
2018-03-18T07:08:49.471Z,100465.21
2018-03-18T07:09:52.967Z,100489.56
2018-03-18T07:10:56.325Z,100492.17
2018-03-18T07:11:59.675Z,100491.72
2018-03-18T07:13:04.707Z,100484.66
2018-03-18T07:14:08.066Z,100489.83
2018-03-18T07:15:11.517Z,100493.61
2018-03-18T07:16:14.888Z,100494.41
2018-03-18T07:17:18.628Z,100491.77
2018-03-18T07:18:22.039Z,100492.17
2018-03-18T07:19:25.408Z,100483.45
2018-03-18T07:20:28.694Z,100485.95
2018-03-18T07:21:32.328Z,100493.32
2018-03-18T07:22:35.735Z,100490.28
2018-03-18T07:23:39.075Z,100505.91
2018-03-18T07:24:42.480Z,100493.23
2018-03-18T07:25:45.788Z,100501.04
2018-03-18T07:26:49.101Z,100503.25
2018-03-18T07:27:53.451Z,100499.09
2018-03-18T07:28:56.802Z,100514.08
2018-03-18T07:31:09.771Z,100511.66
2018-03-18T07:32:13.912Z,100507.08
2018-03-18T07:33:17.273Z,100515.45
2018-03-18T07:34:20.699Z,100508.19
2018-03-18T07:35:24.026Z,100509.06
2018-03-18T07:36:27.472Z,100511.14
2018-03-18T07:37:30.818Z,100511.97
2018-03-18T07:38:34.285Z,100507.63
2018-03-18T07:39:37.654Z,100510.69
2018-03-18T07:40:40.977Z,100511.97
2018-03-18T07:41:44.316Z,100518.41
2018-03-18T07:42:47.689Z,100509.69
2018-03-18T07:43:51.014Z,100529.19
2018-03-18T07:44:54.373Z,100514.80
2018-03-18T07:45:57.969Z,100524.32
2018-03-18T07:47:01.407Z,100517.83
2018-03-18T07:48:04.795Z,100521.27
2018-03-18T07:49:08.113Z,100523.45
2018-03-18T07:50:11.499Z,100521.27
2018-03-18T07:51:15.235Z,100523.45
2018-03-18T07:52:18.752Z,100526.48
2018-03-18T07:53:22.099Z,100529.92
2018-03-18T07:54:25.475Z,100533.00
2018-03-18T07:55:28.818Z,100532.97
2018-03-18T07:56:32.355Z,100546.38
2018-03-18T07:57:35.732Z,100530.92
2018-03-18T07:58:39.139Z,100537.96
2018-03-18T07:59:42.520Z,100539.49
2018-03-18T08:00:45.931Z,100544.43
2018-03-18T08:01:49.283Z,100541.02
2018-03-18T08:02:52.652Z,100545.94
2018-03-18T08:03:55.964Z,100538.14
2018-03-18T08:04:59.308Z,100542.52
2018-03-18T08:06:02.816Z,100535.98
2018-03-18T08:07:06.119Z,100536.28
2018-03-18T08:08:09.510Z,100541.87
2018-03-18T08:09:12.829Z,100545.23
2018-03-18T08:10:16.221Z,100551.25
2018-03-18T08:11:25.708Z,100548.22
2018-03-18T08:12:29.019Z,100558.72
2018-03-18T08:13:34.758Z,100550.02
2018-03-18T08:14:38.101Z,100546.46
2018-03-18T08:15:41.491Z,100544.69
2018-03-18T08:16:44.937Z,100542.41
2018-03-18T08:17:48.276Z,100544.17
2018-03-18T08:18:51.644Z,100542.88
2018-03-18T08:19:55.149Z,100568.17
2018-03-18T08:20:58.529Z,100560.05
2018-03-18T08:22:03.152Z,100552.80
2018-03-18T08:23:06.480Z,100557.69
2018-03-18T08:24:09.890Z,100552.16
2018-03-18T08:25:13.261Z,100552.75
2018-03-18T08:26:16.706Z,100552.88
2018-03-18T08:27:20.884Z,100553.34
2018-03-18T08:28:24.797Z,100559.94
2018-03-18T08:29:29.018Z,100556.50
2018-03-18T08:30:32.427Z,100557.03
2018-03-18T08:31:35.964Z,100570.95
2018-03-18T08:32:39.357Z,100550.95
2018-03-18T08:33:42.736Z,100542.61
2018-03-18T08:34:46.123Z,100559.53
2018-03-18T08:35:49.637Z,100556.80
2018-03-18T08:36:53.010Z,100557.23
2018-03-18T08:37:56.380Z,100548.11
2018-03-18T08:38:59.718Z,100553.20
2018-03-18T08:40:03.688Z,100550.09
2018-03-18T08:41:07.161Z,100556.53
2018-03-18T08:42:13.029Z,100553.50
2018-03-18T08:43:16.361Z,100552.60
2018-03-18T08:44:20.362Z,100558.59
2018-03-18T08:45:23.813Z,100552.45
2018-03-18T08:46:27.193Z,100548.87
2018-03-18T08:47:30.593Z,100555.31
2018-03-18T08:48:34.246Z,100536.48
2018-03-18T08:49:38.296Z,100558.95
2018-03-18T08:50:42.041Z,100549.34
2018-03-18T08:51:45.485Z,100556.19
2018-03-18T08:52:48.836Z,100579.66
2018-03-18T08:53:53.617Z,100558.82
2018-03-18T08:54:57.018Z,100572.46
2018-03-18T08:56:01.792Z,100573.47
2018-03-18T08:57:05.176Z,100576.27
2018-03-18T08:58:08.663Z,100569.44
2018-03-18T08:59:11.980Z,100577.36
2018-03-18T09:00:15.362Z,100580.44
2018-03-18T09:01:18.827Z,100578.79
2018-03-18T09:02:22.444Z,100597.09
2018-03-18T09:03:25.798Z,100579.41
2018-03-18T09:04:29.198Z,100578.63
2018-03-18T09:05:32.534Z,100573.44
2018-03-18T09:06:35.982Z,100580.83
2018-03-18T09:07:39.441Z,100582.13
2018-03-18T09:08:42.848Z,100579.91
2018-03-18T09:09:46.299Z,100586.88
2018-03-18T09:10:49.755Z,100570.36
2018-03-18T09:11:53.185Z,100577.73
2018-03-18T09:12:56.501Z,100592.53
2018-03-18T09:14:01.653Z,100590.48
2018-03-18T09:15:05.061Z,100604.00
2018-03-18T09:16:08.376Z,100583.66
2018-03-18T09:17:11.731Z,100585.36
2018-03-18T09:18:15.152Z,100587.47
2018-03-18T09:19:18.584Z,100584.94
2018-03-18T09:20:22.272Z,100587.42
2018-03-18T09:21:25.849Z,100590.34
2018-03-18T09:22:29.197Z,100597.65
2018-03-18T09:23:32.534Z,100589.36
2018-03-18T09:24:35.963Z,100597.34
2018-03-18T09:25:39.813Z,100587.47
2018-03-18T09:26:43.173Z,100594.79
2018-03-18T09:27:46.510Z,100599.03
2018-03-18T09:28:50.016Z,100585.90
2018-03-18T09:29:53.383Z,100585.86
2018-03-18T09:30:56.803Z,100595.41
2018-03-18T09:32:00.179Z,100586.20
2018-03-18T09:33:03.555Z,100593.91
2018-03-18T09:34:07.006Z,100579.02
2018-03-18T09:35:10.348Z,100577.99
2018-03-18T09:36:13.745Z,100586.12
2018-03-18T09:37:17.197Z,100586.88
2018-03-18T09:38:20.522Z,100584.59
2018-03-18T09:39:23.914Z,100584.97
2018-03-18T09:40:27.375Z,100586.15
2018-03-18T09:41:30.716Z,100589.96
2018-03-18T09:42:34.259Z,100598.06
2018-03-18T09:43:37.608Z,100595.30
2018-03-18T09:44:41.152Z,100583.42
2018-03-18T09:45:44.479Z,100592.09
2018-03-18T09:46:47.891Z,100580.79
2018-03-18T09:47:51.337Z,100578.93
2018-03-18T09:48:54.699Z,100584.81
2018-03-18T09:49:58.110Z,100588.98
2018-03-18T09:51:01.548Z,100583.21
2018-03-18T09:52:05.052Z,100583.51
2018-03-18T09:53:08.353Z,100585.11
2018-03-18T09:54:11.700Z,100577.58
2018-03-18T09:55:15.043Z,100585.68
2018-03-18T09:56:18.478Z,100584.38
2018-03-18T09:57:21.989Z,100584.05
2018-03-18T09:58:25.348Z,100580.16
2018-03-18T09:59:28.702Z,100570.61
2018-03-18T10:00:32.096Z,100586.13
2018-03-18T10:01:35.489Z,100585.95
2018-03-18T10:02:38.888Z,100577.03
2018-03-18T10:03:42.282Z,100573.73
2018-03-18T10:04:45.634Z,100583.86
2018-03-18T10:05:49.070Z,100568.78
2018-03-18T10:06:52.540Z,100577.22
2018-03-18T10:07:55.952Z,100592.33
2018-03-18T10:08:59.328Z,100584.49
2018-03-18T10:10:02.713Z,100574.91
2018-03-18T10:11:06.421Z,100582.17
2018-03-18T10:12:09.787Z,100568.53
2018-03-18T10:13:13.086Z,100571.01
2018-03-18T10:14:17.475Z,100569.91
2018-03-18T10:15:20.813Z,100572.70
2018-03-18T10:16:24.372Z,100579.95
2018-03-18T10:17:27.777Z,100570.55
2018-03-18T10:18:31.108Z,100580.36
2018-03-18T10:19:34.446Z,100578.38
2018-03-18T10:20:37.860Z,100576.95
2018-03-18T10:21:41.256Z,100572.92
2018-03-18T10:22:44.670Z,100564.60
2018-03-18T10:23:48.084Z,100599.34
2018-03-18T10:24:51.435Z,100574.72
2018-03-18T10:25:54.748Z,100585.45
2018-03-18T10:26:58.147Z,100577.47
2018-03-18T10:28:01.552Z,100581.77
2018-03-18T10:29:04.910Z,100577.70
2018-03-18T10:30:08.249Z,100586.73
2018-03-18T10:31:11.820Z,100571.93
2018-03-18T10:32:15.117Z,100582.10
2018-03-18T10:33:18.538Z,100580.20
2018-03-18T10:34:21.877Z,100587.89
2018-03-18T10:35:25.295Z,100577.95
2018-03-18T10:36:28.631Z,100585.87
2018-03-18T10:37:32.429Z,100590.22
2018-03-18T10:38:35.783Z,100579.74
2018-03-18T10:39:39.218Z,100584.40
2018-03-18T10:40:42.623Z,100587.75
2018-03-18T10:41:45.932Z,100590.14
2018-03-18T10:42:49.256Z,100594.86
2018-03-18T10:43:52.679Z,100595.70
2018-03-18T10:44:56.061Z,100600.51
2018-03-18T10:45:59.455Z,100594.48
2018-03-18T10:47:04.170Z,100595.56
2018-03-18T10:48:07.577Z,100595.19
2018-03-18T10:49:10.963Z,100587.33
2018-03-18T10:50:14.299Z,100593.83
2018-03-18T10:51:19.592Z,100586.45
2018-03-18T10:52:22.982Z,100588.75
2018-03-18T10:53:26.624Z,100588.63
2018-03-18T10:54:29.987Z,100593.66
2018-03-18T10:55:33.343Z,100589.52
2018-03-18T10:56:36.881Z,100580.05
2018-03-18T10:57:40.278Z,100597.64
2018-03-18T10:58:43.700Z,100591.76
2018-03-18T10:59:47.116Z,100589.42
2018-03-18T11:00:54.005Z,100584.08
2018-03-18T11:02:02.946Z,100587.52
2018-03-18T11:03:06.582Z,100588.59
2018-03-18T11:04:10.838Z,100585.80
2018-03-18T11:05:14.233Z,100587.48
2018-03-18T11:06:17.565Z,100591.28
2018-03-18T11:07:21.121Z,100592.98
2018-03-18T11:08:24.503Z,100583.83
2018-03-18T11:09:27.865Z,100599.46
2018-03-18T11:10:31.223Z,100596.48
2018-03-18T11:11:34.602Z,100583.44
2018-03-18T11:12:38.109Z,100582.58
2018-03-18T11:13:41.580Z,100577.84
2018-03-18T11:14:44.936Z,100578.81
2018-03-18T11:15:48.347Z,100572.70
2018-03-18T11:16:51.723Z,100584.16
2018-03-18T11:17:55.081Z,100583.02
2018-03-18T11:18:58.407Z,100573.50
2018-03-18T11:20:01.852Z,100570.46
2018-03-18T11:21:05.290Z,100579.28
2018-03-18T11:22:08.691Z,100567.05
2018-03-18T11:23:12.106Z,100566.42
2018-03-18T11:24:15.477Z,100569.59
2018-03-18T11:25:18.942Z,100581.95
2018-03-18T11:26:22.434Z,100584.39
2018-03-18T11:27:25.778Z,100573.41
2018-03-18T11:28:29.203Z,100572.90
2018-03-18T11:29:32.617Z,100569.80
2018-03-18T11:30:36.044Z,100568.03
2018-03-18T11:31:39.466Z,100568.77
2018-03-18T11:32:42.845Z,100557.36
2018-03-18T11:33:46.607Z,100554.11
2018-03-18T11:34:51.952Z,100562.90
2018-03-18T11:35:55.322Z,100554.72
2018-03-18T11:36:58.707Z,100555.78
2018-03-18T11:38:02.251Z,100584.84
2018-03-18T11:39:05.619Z,100560.89
2018-03-18T11:40:08.975Z,100573.28
2018-03-18T11:41:12.355Z,100575.65
2018-03-18T11:42:15.928Z,100552.22
2018-03-18T11:43:19.397Z,100550.37
2018-03-18T11:44:22.823Z,100551.46
2018-03-18T11:45:26.197Z,100549.84
2018-03-18T11:46:29.718Z,100549.08
2018-03-18T11:47:33.079Z,100564.69
2018-03-18T11:48:36.610Z,100554.06
2018-03-18T11:49:39.988Z,100554.37
2018-03-18T11:50:43.341Z,100553.52
2018-03-18T11:51:48.505Z,100556.41
2018-03-18T11:52:51.888Z,100551.89
2018-03-18T11:53:55.329Z,100556.06
2018-03-18T11:54:58.667Z,100560.22
2018-03-18T11:56:02.065Z,100556.14
2018-03-18T11:57:05.380Z,100547.41
2018-03-18T11:58:08.937Z,100549.04
2018-03-18T11:59:12.340Z,100544.98
2018-03-18T12:00:15.819Z,100542.60
2018-03-18T12:01:19.163Z,100550.66
2018-03-18T12:02:23.339Z,100556.20
2018-03-18T12:03:26.856Z,100553.58
2018-03-18T12:04:30.184Z,100566.67
2018-03-18T12:05:33.562Z,100555.93
2018-03-18T12:06:36.953Z,100544.77
2018-03-18T12:07:40.296Z,100548.66
2018-03-18T12:08:56.025Z,100544.11
2018-03-18T12:09:59.451Z,100556.75